Nizhyn, Ukraine
Current Conditions -  °F | °C
As of 6:30 PM on Saturday 20 Dec 2014 (Local Time) from UKBB Reporting Station
Few Clouds Few Clouds  
Wind Chill: 33°   Ceiling: Unl
Heat Index: 39°   Visibility: 6mi
Dew Point: 37°   Wind: 9mph
Humidity: 93%   Direction: 280°W
Pressure: 29.8"   Gusts: NA
Location:  51.05°N, 31.88°E
Report Text: UKBB 201530Z 28004MPS 9999 FEW024 04/03 Q1009 88290050 NOSIG
Loading
Personal Weather Stations






























Interactive Weather Map New forecast layout! Learn more

10-Day Weather Forecast

Advertisements
Track Severe Weather on mobile